createdAt,value
2022-10-18T00:02:19.417Z,6.61
2022-10-18T00:04:46.530Z,6.60
2022-10-18T00:07:13.078Z,6.53
2022-10-18T00:09:39.716Z,6.49
2022-10-18T00:12:06.214Z,6.38
2022-10-18T00:14:32.860Z,6.31
2022-10-18T00:16:59.447Z,6.20
2022-10-18T00:19:28.594Z,6.21
2022-10-18T00:21:55.903Z,6.17
2022-10-18T00:24:22.417Z,6.34
2022-10-18T00:26:48.876Z,6.26
2022-10-18T00:29:16.239Z,6.22
2022-10-18T00:31:43.829Z,6.35
2022-10-18T00:34:13.959Z,6.39
2022-10-18T00:36:41.130Z,6.41
2022-10-18T00:39:09.451Z,6.37
2022-10-18T00:41:37.058Z,6.38
2022-10-18T00:44:26.654Z,6.34
2022-10-18T00:47:00.392Z,6.24
2022-10-18T00:49:39.642Z,6.19
2022-10-18T00:52:16.847Z,6.22
2022-10-18T00:54:45.206Z,6.21
2022-10-18T00:57:13.015Z,6.11
2022-10-18T00:59:40.216Z,6.20
2022-10-18T01:02:07.979Z,6.10
2022-10-18T01:04:35.473Z,6.21
2022-10-18T01:07:04.607Z,6.13
2022-10-18T01:09:34.069Z,6.14
2022-10-18T01:12:15.505Z,6.13
2022-10-18T01:14:50.454Z,6.08
2022-10-18T01:17:30.434Z,6.09
2022-10-18T01:20:34.784Z,5.96
2022-10-18T01:23:27.174Z,5.84
2022-10-18T01:26:10.415Z,5.89
2022-10-18T01:29:14.144Z,5.83
2022-10-18T01:31:50.397Z,5.75
2022-10-18T01:34:19.940Z,5.69
2022-10-18T01:36:50.677Z,5.66
2022-10-18T01:39:23.337Z,5.72
2022-10-18T01:41:52.609Z,5.81
2022-10-18T01:44:23.759Z,5.79
2022-10-18T01:46:54.228Z,5.84
2022-10-18T01:49:21.172Z,5.85
2022-10-18T01:51:47.722Z,5.90
2022-10-18T01:54:20.206Z,5.89
2022-10-18T01:57:01.272Z,5.95
2022-10-18T01:59:52.874Z,6.06
2022-10-18T02:02:51.475Z,6.23
2022-10-18T02:05:46.407Z,6.39
2022-10-18T02:08:26.060Z,6.58
2022-10-18T02:11:06.941Z,6.59
2022-10-18T02:13:44.828Z,6.74
2022-10-18T02:16:16.708Z,6.90
2022-10-18T02:18:53.431Z,7.13
2022-10-18T02:21:21.471Z,7.25
2022-10-18T02:23:48.982Z,7.38
2022-10-18T02:26:16.044Z,7.47
2022-10-18T02:28:43.027Z,7.53
2022-10-18T02:31:34.820Z,7.60
2022-10-18T02:34:17.373Z,7.66
2022-10-18T02:36:51.424Z,7.68
2022-10-18T02:39:22.851Z,7.76
2022-10-18T02:41:49.401Z,7.84
2022-10-18T02:44:15.893Z,7.90
2022-10-18T02:46:42.793Z,7.97
2022-10-18T02:49:09.208Z,7.95
2022-10-18T02:51:35.668Z,8.03
2022-10-18T02:54:02.177Z,8.06
2022-10-18T02:56:28.643Z,8.05
2022-10-18T02:58:55.129Z,8.12
2022-10-18T03:01:21.780Z,8.11
2022-10-18T03:03:48.555Z,8.11
2022-10-18T03:06:15.120Z,8.17
2022-10-18T03:08:41.681Z,8.15
2022-10-18T03:11:08.169Z,8.18
2022-10-18T03:13:34.659Z,8.12
2022-10-18T03:16:01.552Z,8.19
2022-10-18T03:18:28.134Z,8.26
2022-10-18T03:20:54.627Z,8.18
2022-10-18T03:23:21.477Z,8.21
2022-10-18T03:25:48.032Z,8.20
2022-10-18T03:28:14.497Z,8.21
2022-10-18T03:30:41.087Z,8.25
2022-10-18T03:33:07.932Z,8.30
2022-10-18T03:35:34.419Z,8.31
2022-10-18T03:38:01.152Z,8.33
2022-10-18T03:40:27.654Z,8.40
2022-10-18T03:42:54.140Z,8.38
2022-10-18T03:45:20.707Z,8.42
2022-10-18T03:47:47.193Z,8.45
2022-10-18T03:50:13.723Z,8.43
2022-10-18T03:52:40.260Z,8.45
2022-10-18T03:55:07.252Z,8.46
2022-10-18T03:57:33.742Z,8.45
2022-10-18T04:00:00.285Z,8.46
2022-10-18T04:02:26.906Z,8.44
2022-10-18T04:04:53.378Z,8.41
2022-10-18T04:07:19.948Z,8.43
2022-10-18T04:09:46.422Z,8.28
2022-10-18T04:12:12.900Z,8.25
2022-10-18T04:14:39.447Z,8.24
2022-10-18T04:17:06.321Z,8.22
2022-10-18T04:19:32.787Z,8.24
2022-10-18T04:21:59.352Z,8.19
2022-10-18T04:24:25.807Z,8.16
2022-10-18T04:26:52.271Z,8.15
2022-10-18T04:29:18.810Z,8.11
2022-10-18T04:31:46.113Z,8.05
2022-10-18T04:34:13.328Z,7.98
2022-10-18T04:36:39.899Z,8.07
2022-10-18T04:39:06.384Z,7.99
2022-10-18T04:41:32.879Z,8.02
2022-10-18T04:43:59.472Z,7.99
2022-10-18T04:46:25.954Z,7.94
2022-10-18T04:48:52.399Z,8.06
2022-10-18T04:51:18.985Z,8.11
2022-10-18T04:53:45.465Z,8.31
2022-10-18T04:56:12.130Z,8.51
2022-10-18T04:58:38.679Z,8.66
2022-10-18T05:01:06.512Z,8.88
2022-10-18T05:03:33.210Z,9.09
2022-10-18T05:06:02.553Z,9.08
2022-10-18T05:08:31.296Z,9.06
2022-10-18T05:10:58.011Z,8.88
2022-10-18T05:13:24.689Z,8.73
2022-10-18T05:15:51.252Z,8.65
2022-10-18T05:18:17.994Z,8.52
2022-10-18T05:20:44.585Z,8.47
2022-10-18T05:23:11.070Z,8.48
2022-10-18T05:25:42.135Z,8.53
2022-10-18T05:28:34.700Z,8.54
2022-10-18T05:30:56.056Z,8.52
2022-10-18T05:33:22.767Z,8.46
2022-10-18T05:35:49.260Z,8.38
2022-10-18T05:38:15.726Z,8.26
2022-10-18T05:40:42.330Z,8.26
2022-10-18T05:43:08.774Z,8.25
2022-10-18T05:45:35.266Z,8.25
2022-10-18T05:48:01.775Z,8.33
2022-10-18T05:50:28.980Z,8.21
2022-10-18T05:53:06.914Z,8.35
2022-10-18T05:55:39.402Z,8.62
2022-10-18T05:58:05.954Z,8.61
2022-10-18T06:00:32.479Z,8.56
2022-10-18T06:03:00.382Z,8.54
2022-10-18T06:05:27.640Z,8.56
2022-10-18T06:07:54.128Z,8.48
2022-10-18T06:10:20.699Z,8.61
2022-10-18T06:12:47.252Z,8.78
2022-10-18T06:15:13.974Z,8.89
2022-10-18T06:17:40.633Z,8.86
2022-10-18T06:20:07.625Z,8.85
2022-10-18T06:22:34.239Z,9.04
2022-10-18T06:25:00.761Z,9.15
2022-10-18T06:27:27.243Z,9.14
2022-10-18T06:29:53.730Z,9.18
2022-10-18T06:32:20.260Z,9.26
2022-10-18T06:34:46.880Z,9.30
2022-10-18T06:37:13.323Z,9.28
2022-10-18T06:39:39.863Z,9.32
2022-10-18T06:42:06.332Z,9.38
2022-10-18T06:44:32.791Z,9.38
2022-10-18T06:46:59.399Z,9.11
2022-10-18T06:49:25.855Z,9.11
2022-10-18T06:51:53.802Z,9.08
2022-10-18T06:54:20.405Z,9.02
2022-10-18T06:56:46.852Z,8.95
2022-10-18T06:59:13.753Z,8.97
2022-10-18T07:01:40.369Z,9.02
2022-10-18T07:04:06.890Z,9.06
2022-10-18T07:06:33.373Z,9.08
2022-10-18T07:08:59.925Z,9.03
2022-10-18T07:11:27.120Z,9.07
2022-10-18T07:13:58.529Z,9.15
2022-10-18T07:16:25.122Z,9.21
2022-10-18T07:18:51.692Z,9.25
2022-10-18T07:21:20.466Z,9.21
2022-10-18T07:23:48.206Z,9.08
2022-10-18T07:26:31.895Z,8.83
2022-10-18T07:29:09.513Z,8.55
2022-10-18T07:31:37.295Z,8.51
2022-10-18T07:34:05.340Z,8.43
2022-10-18T07:36:32.234Z,8.49
2022-10-18T07:38:59.546Z,8.27
2022-10-18T07:41:26.213Z,8.16
2022-10-18T07:43:54.220Z,8.10
2022-10-18T07:46:22.064Z,8.07
2022-10-18T07:48:49.160Z,8.12
2022-10-18T07:51:15.898Z,8.07
2022-10-18T07:53:42.418Z,8.01
2022-10-18T07:56:12.541Z,8.08
2022-10-18T07:58:39.128Z,8.09
2022-10-18T08:01:07.840Z,8.09
2022-10-18T08:03:35.504Z,8.11
2022-10-18T08:06:02.984Z,8.09
2022-10-18T08:08:29.877Z,8.05
2022-10-18T08:11:02.847Z,8.08
2022-10-18T08:13:29.935Z,8.09
2022-10-18T08:16:05.373Z,8.02
2022-10-18T08:18:32.029Z,8.04
2022-10-18T08:21:03.253Z,8.07
2022-10-18T08:23:30.279Z,8.16
2022-10-18T08:25:57.150Z,8.27
2022-10-18T08:28:23.692Z,8.35
2022-10-18T08:30:50.261Z,8.43
2022-10-18T08:33:16.789Z,8.55
2022-10-18T08:35:43.289Z,8.67
2022-10-18T08:38:09.772Z,8.74
2022-10-18T08:40:36.917Z,8.80
2022-10-18T08:43:06.891Z,8.86
2022-10-18T08:45:42.397Z,8.92
2022-10-18T08:48:36.892Z,9.07
2022-10-18T08:51:07.150Z,9.10
2022-10-18T08:54:06.084Z,9.21
2022-10-18T08:56:34.547Z,9.25
2022-10-18T08:59:02.812Z,9.31
2022-10-18T09:04:36.668Z,9.47
2022-10-18T09:07:16.636Z,9.58
2022-10-18T09:09:55.114Z,9.66
2022-10-18T09:12:41.069Z,9.63
2022-10-18T09:15:32.420Z,9.74
2022-10-18T09:18:22.875Z,9.78
2022-10-18T09:20:56.752Z,9.85
2022-10-18T09:23:47.843Z,9.97
2022-10-18T09:26:20.321Z,9.99
2022-10-18T09:28:55.797Z,10.15
2022-10-18T09:31:33.729Z,10.32
2022-10-18T09:34:11.621Z,10.39
2022-10-18T09:36:39.314Z,10.56
2022-10-18T09:39:12.342Z,10.69
2022-10-18T09:41:53.348Z,10.73
2022-10-18T09:44:35.971Z,10.75
2022-10-18T09:47:24.365Z,10.89
2022-10-18T09:50:06.137Z,11.11
2022-10-18T09:52:39.058Z,11.09
2022-10-18T09:55:24.103Z,11.25
2022-10-18T09:57:59.719Z,11.27
2022-10-18T10:00:32.408Z,11.41
2022-10-18T10:03:01.213Z,11.48
2022-10-18T10:05:27.904Z,11.46
2022-10-18T10:07:59.418Z,11.72
2022-10-18T10:10:28.839Z,11.73
2022-10-18T10:13:06.110Z,11.93
2022-10-18T10:15:37.169Z,12.03
2022-10-18T10:18:21.396Z,12.10
2022-10-18T10:20:52.325Z,12.12
2022-10-18T10:23:26.401Z,12.15
2022-10-18T10:25:56.267Z,12.30
2022-10-18T10:28:36.869Z,12.34
2022-10-18T10:31:25.134Z,12.45
2022-10-18T10:34:15.321Z,12.50
2022-10-18T10:36:50.573Z,12.61
2022-10-18T10:39:18.701Z,12.59
2022-10-18T10:41:53.273Z,12.67
2022-10-18T10:44:25.854Z,12.68
2022-10-18T10:46:54.051Z,12.58
2022-10-18T10:49:46.228Z,12.72
2022-10-18T10:52:28.003Z,12.80
2022-10-18T10:55:05.716Z,12.92
2022-10-18T10:57:38.447Z,12.96
2022-10-18T11:00:06.098Z,12.93
2022-10-18T11:02:35.254Z,13.09
2022-10-18T11:05:24.005Z,13.10
2022-10-18T11:07:55.225Z,13.12
2022-10-18T11:10:29.319Z,13.23
2022-10-18T11:13:13.343Z,13.20
2022-10-18T11:15:46.449Z,13.29
2022-10-18T11:18:28.131Z,13.34
2022-10-18T11:21:22.031Z,13.31
2022-10-18T11:23:48.910Z,13.45
2022-10-18T11:26:40.895Z,13.43
2022-10-18T11:29:21.080Z,13.42
2022-10-18T11:32:06.617Z,13.40
2022-10-18T11:34:56.486Z,13.43
2022-10-18T11:37:39.352Z,13.40
2022-10-18T11:40:30.310Z,13.51
2022-10-18T11:43:57.478Z,13.50
2022-10-18T11:46:56.596Z,13.60
2022-10-18T11:49:41.413Z,13.56
2022-10-18T11:52:33.863Z,13.56
2022-10-18T11:55:28.941Z,13.59
2022-10-18T11:58:07.575Z,13.65
2022-10-18T12:00:43.248Z,13.72
2022-10-18T12:03:38.788Z,13.78
2022-10-18T12:06:14.298Z,13.93
2022-10-18T12:08:47.988Z,14.03
2022-10-18T12:11:30.319Z,14.11
2022-10-18T12:14:00.825Z,14.10
2022-10-18T12:16:51.069Z,14.20
2022-10-18T12:19:27.634Z,14.30
2022-10-18T12:21:58.139Z,14.39
2022-10-18T12:24:30.237Z,14.41
2022-10-18T12:27:01.459Z,14.46
2022-10-18T12:29:50.512Z,14.48
2022-10-18T12:32:31.030Z,14.50
2022-10-18T12:35:02.222Z,14.52
2022-10-18T12:38:00.952Z,14.52
2022-10-18T12:40:54.656Z,14.56
2022-10-18T12:43:29.723Z,14.53
2022-10-18T12:45:59.342Z,14.56
2022-10-18T12:48:37.675Z,14.60
2022-10-18T12:51:13.299Z,14.60
2022-10-18T12:53:40.818Z,14.62
2022-10-18T12:56:29.090Z,14.61
2022-10-18T12:59:38.943Z,14.62
2022-10-18T13:02:05.369Z,14.65
2022-10-18T13:04:31.781Z,14.65
2022-10-18T13:06:58.244Z,14.76
2022-10-18T13:09:31.709Z,14.81
2022-10-18T13:12:10.518Z,14.86
2022-10-18T13:15:05.754Z,14.83
2022-10-18T13:17:47.596Z,14.82
2022-10-18T13:20:32.538Z,14.90
2022-10-18T13:23:41.582Z,14.83
2022-10-18T13:26:43.482Z,14.75
2022-10-18T13:29:21.884Z,14.80
2022-10-18T13:32:10.721Z,14.66
2022-10-18T13:34:37.368Z,14.56
2022-10-18T13:37:05.523Z,14.47
2022-10-18T13:39:33.000Z,14.39
2022-10-18T13:41:59.465Z,14.44
2022-10-18T13:44:28.503Z,14.46
2022-10-18T13:46:54.948Z,14.41
2022-10-18T13:49:24.206Z,14.35
2022-10-18T13:52:24.683Z,14.28
2022-10-18T13:55:06.198Z,14.33
2022-10-18T13:58:06.146Z,14.35
2022-10-18T14:00:35.344Z,14.18
2022-10-18T14:03:02.129Z,14.13
2022-10-18T14:05:49.628Z,14.11
2022-10-18T14:08:21.996Z,14.06
2022-10-18T14:11:06.014Z,14.08
2022-10-18T14:13:42.583Z,14.02
2022-10-18T14:16:29.703Z,14.03
2022-10-18T14:19:05.158Z,14.03
2022-10-18T14:21:37.718Z,14.08
2022-10-18T14:24:15.981Z,14.05
2022-10-18T14:26:42.506Z,13.97
2022-10-18T14:29:18.222Z,13.93
2022-10-18T14:31:53.963Z,13.89
2022-10-18T14:34:21.113Z,13.87
2022-10-18T14:36:49.509Z,13.87
2022-10-18T14:39:26.399Z,13.85
2022-10-18T14:41:55.669Z,13.77
2022-10-18T14:44:30.238Z,13.79
2022-10-18T14:47:02.584Z,13.76
2022-10-18T14:49:30.448Z,13.66
2022-10-18T14:51:59.268Z,13.61
2022-10-18T14:54:32.143Z,13.61
2022-10-18T14:57:00.931Z,13.55
2022-10-18T14:59:30.685Z,13.47
2022-10-18T15:02:03.549Z,13.40
2022-10-18T15:04:30.048Z,13.31
2022-10-18T15:06:57.572Z,13.27
2022-10-18T15:09:24.690Z,13.31
2022-10-18T15:11:51.952Z,13.28
2022-10-18T15:14:20.317Z,13.26
2022-10-18T15:16:48.880Z,13.26
2022-10-18T15:19:15.314Z,13.33
2022-10-18T15:22:30.234Z,13.40
2022-10-18T15:25:06.099Z,13.41
2022-10-18T15:27:37.721Z,13.39
2022-10-18T15:30:40.952Z,13.36
2022-10-18T15:33:08.883Z,13.29
2022-10-18T15:35:37.279Z,13.16
2022-10-18T15:38:25.031Z,13.09
2022-10-18T15:40:52.068Z,13.01
2022-10-18T15:43:24.451Z,13.02
2022-10-18T15:46:03.222Z,12.90
2022-10-18T15:48:39.994Z,12.79
2022-10-18T15:51:28.000Z,12.70
2022-10-18T15:53:54.719Z,12.62
2022-10-18T15:56:35.389Z,12.61
2022-10-18T15:59:05.107Z,12.62
2022-10-18T16:01:43.829Z,12.56
2022-10-18T16:04:27.159Z,12.56
2022-10-18T16:06:55.184Z,12.48
2022-10-18T16:09:23.477Z,12.35
2022-10-18T16:11:55.594Z,12.22
2022-10-18T16:14:23.101Z,12.24
2022-10-18T16:16:55.860Z,12.34
2022-10-18T16:19:22.481Z,12.30
2022-10-18T16:21:49.804Z,12.22
2022-10-18T16:24:16.726Z,12.29
2022-10-18T16:26:43.225Z,12.23
2022-10-18T16:29:35.839Z,12.19
2022-10-18T16:32:02.554Z,12.20
2022-10-18T16:34:29.265Z,12.17
2022-10-18T16:36:55.950Z,12.17
2022-10-18T16:39:23.386Z,12.22
2022-10-18T16:41:49.893Z,12.24
2022-10-18T16:44:16.785Z,12.25
2022-10-18T16:46:43.611Z,12.22
2022-10-18T16:49:22.066Z,12.16
2022-10-18T16:51:48.535Z,12.13
2022-10-18T16:54:15.074Z,12.12
2022-10-18T16:56:41.680Z,12.16
2022-10-18T16:59:34.262Z,12.13
2022-10-18T17:02:00.821Z,12.11
2022-10-18T17:04:27.368Z,12.03
2022-10-18T17:06:57.223Z,11.98
2022-10-18T17:09:23.750Z,11.92
2022-10-18T17:11:50.261Z,11.94
2022-10-18T17:14:16.764Z,11.89
2022-10-18T17:16:45.417Z,11.87
2022-10-18T17:19:14.794Z,11.85
2022-10-18T17:21:41.307Z,11.79
2022-10-18T17:24:07.876Z,11.74
2022-10-18T17:26:34.461Z,11.71
2022-10-18T17:29:04.672Z,11.74
2022-10-18T17:31:32.164Z,11.75
2022-10-18T17:33:58.839Z,11.77
2022-10-18T17:36:25.795Z,11.78
2022-10-18T17:38:55.740Z,11.81
2022-10-18T17:41:22.310Z,11.88
2022-10-18T17:43:49.046Z,11.83
2022-10-18T17:46:16.087Z,11.83
2022-10-18T17:48:42.848Z,11.81
2022-10-18T17:51:14.799Z,11.89
2022-10-18T17:53:41.551Z,11.88
2022-10-18T17:56:08.330Z,11.84
2022-10-18T17:58:35.194Z,11.84
2022-10-18T18:01:19.252Z,11.81
2022-10-18T18:03:46.017Z,11.76
2022-10-18T18:06:21.594Z,11.78
2022-10-18T18:08:49.400Z,11.80
2022-10-18T18:11:16.863Z,11.82
2022-10-18T18:13:43.461Z,11.79
2022-10-18T18:16:24.987Z,11.83
2022-10-18T18:18:53.810Z,11.78
2022-10-18T18:21:21.283Z,11.75
2022-10-18T18:23:48.722Z,11.75
2022-10-18T18:26:15.585Z,11.79
2022-10-18T18:28:42.536Z,11.91
2022-10-18T18:31:11.344Z,11.97
2022-10-18T18:33:38.273Z,11.98
2022-10-18T18:36:05.721Z,11.91
2022-10-18T18:38:33.396Z,11.86
2022-10-18T18:41:20.567Z,11.74
2022-10-18T18:43:54.943Z,11.73
2022-10-18T18:46:22.305Z,11.75
2022-10-18T18:48:49.352Z,11.76
2022-10-18T18:51:18.520Z,11.82
2022-10-18T18:53:46.252Z,11.87
2022-10-18T18:56:18.668Z,11.89
2022-10-18T18:58:46.572Z,11.87
2022-10-18T19:01:22.544Z,11.86
2022-10-18T19:03:53.030Z,11.85
2022-10-18T19:06:40.916Z,11.86
2022-10-18T19:09:10.264Z,11.98
2022-10-18T19:11:38.073Z,12.07
2022-10-18T19:14:06.789Z,12.15
2022-10-18T19:16:38.819Z,12.28
2022-10-18T19:19:15.591Z,12.34
2022-10-18T19:21:44.853Z,12.40
2022-10-18T19:24:11.929Z,12.51
2022-10-18T19:26:42.926Z,12.59
2022-10-18T19:29:13.172Z,12.71
2022-10-18T19:31:40.879Z,12.86
2022-10-18T19:34:09.926Z,12.97
2022-10-18T19:36:37.148Z,13.06
2022-10-18T19:39:05.090Z,13.15
2022-10-18T19:41:31.696Z,13.23
2022-10-18T19:43:58.172Z,13.30
2022-10-18T19:46:25.121Z,13.35
2022-10-18T19:48:51.712Z,13.36
2022-10-18T19:51:21.898Z,13.38
2022-10-18T19:53:50.565Z,13.40
2022-10-18T19:56:20.101Z,13.40
2022-10-18T19:58:47.410Z,13.43
2022-10-18T20:01:14.749Z,13.39
2022-10-18T20:03:41.500Z,13.40
2022-10-18T20:06:08.845Z,13.36
2022-10-18T20:08:36.794Z,13.39
2022-10-18T20:11:09.454Z,13.37
2022-10-18T20:13:36.097Z,13.40
2022-10-18T20:16:04.100Z,13.36
2022-10-18T20:18:31.144Z,13.37
2022-10-18T20:20:57.623Z,13.32
2022-10-18T20:23:24.206Z,13.32
2022-10-18T20:26:02.262Z,13.28
2022-10-18T20:28:29.559Z,13.25
2022-10-18T20:31:07.571Z,13.21
2022-10-18T20:33:35.571Z,13.16
2022-10-18T20:36:22.315Z,13.15
2022-10-18T20:38:49.293Z,13.16
2022-10-18T20:41:21.891Z,13.10
2022-10-18T20:43:55.861Z,12.94
2022-10-18T20:46:22.938Z,12.77
2022-10-18T20:48:50.948Z,12.69
2022-10-18T20:51:18.465Z,12.61
2022-10-18T20:53:45.497Z,12.57
2022-10-18T20:56:17.952Z,12.55
2022-10-18T20:58:45.329Z,12.50
2022-10-18T21:01:15.224Z,12.54
2022-10-18T21:03:44.406Z,12.57
2022-10-18T21:06:19.457Z,12.57
2022-10-18T21:08:46.358Z,12.50
2022-10-18T21:11:14.043Z,12.45
2022-10-18T21:13:40.577Z,12.37
2022-10-18T21:16:07.612Z,12.30
2022-10-18T21:18:36.208Z,12.26
2022-10-18T21:21:14.669Z,12.22
2022-10-18T21:23:41.330Z,12.21
2022-10-18T21:26:08.646Z,12.28
2022-10-18T21:28:35.257Z,12.36
2022-10-18T21:31:14.204Z,12.42
2022-10-18T21:33:41.856Z,12.47
2022-10-18T21:36:08.731Z,12.49
2022-10-18T21:38:35.324Z,12.48
2022-10-18T21:41:07.134Z,12.48
2022-10-18T21:43:33.603Z,12.46
2022-10-18T21:46:00.866Z,12.47
2022-10-18T21:48:28.014Z,12.46
2022-10-18T21:50:54.925Z,12.47
2022-10-18T21:53:21.847Z,12.49
2022-10-18T21:55:48.343Z,12.48
2022-10-18T21:58:15.035Z,12.47
2022-10-18T22:00:41.610Z,12.48
2022-10-18T22:03:12.483Z,12.49
2022-10-18T22:05:39.588Z,12.49
2022-10-18T22:08:07.056Z,12.48
2022-10-18T22:10:34.062Z,12.47
2022-10-18T22:13:00.537Z,12.41
2022-10-18T22:15:27.074Z,12.35
2022-10-18T22:17:53.640Z,12.30
2022-10-18T22:20:20.116Z,12.28
2022-10-18T22:22:46.637Z,12.28
2022-10-18T22:25:13.214Z,12.27
2022-10-18T22:27:39.694Z,12.24
2022-10-18T22:30:06.449Z,12.13
2022-10-18T22:32:33.151Z,12.07
2022-10-18T22:34:59.616Z,12.00
2022-10-18T22:37:26.092Z,11.92
2022-10-18T22:39:52.599Z,11.88
2022-10-18T22:42:19.059Z,11.86
2022-10-18T22:44:45.524Z,11.87
2022-10-18T22:47:12.116Z,11.83
2022-10-18T22:49:38.578Z,11.81
2022-10-18T22:52:05.227Z,11.79
2022-10-18T22:54:31.763Z,11.79
2022-10-18T22:56:58.220Z,11.87
2022-10-18T22:59:24.687Z,11.97
2022-10-18T23:01:51.323Z,12.05
2022-10-18T23:04:17.805Z,12.11
2022-10-18T23:06:44.264Z,12.06
2022-10-18T23:09:11.356Z,12.04
2022-10-18T23:11:38.300Z,12.04
2022-10-18T23:14:06.393Z,12.01
2022-10-18T23:16:33.066Z,11.90
2022-10-18T23:18:59.745Z,11.93
2022-10-18T23:21:27.650Z,11.93
2022-10-18T23:23:55.187Z,11.97
2022-10-18T23:26:24.360Z,11.91
2022-10-18T23:28:52.417Z,11.92
2022-10-18T23:31:25.128Z,11.84
2022-10-18T23:33:53.748Z,11.81
2022-10-18T23:36:21.662Z,11.80
2022-10-18T23:38:48.299Z,11.75
2022-10-18T23:41:16.304Z,11.70
2022-10-18T23:43:43.772Z,11.65
2022-10-18T23:46:11.222Z,11.53
2022-10-18T23:48:37.926Z,11.57
2022-10-18T23:51:05.218Z,11.50
2022-10-18T23:53:31.949Z,11.49
2022-10-18T23:56:00.920Z,11.54
2022-10-18T23:58:28.679Z,11.48
